St. James — WDG2626 — position and weather

sailwx.info

Track history (hours):
 
Tides and Currents Weather Stations Pressure Air Temp Water Temp Dewpoint Dewpoint Depression Visibility Wind Speed Wind Dir Waves Ship Positions

St. James

Owner: St James Services LLC, Convent, LA. More information available from US FCC via Universal Licensing System and Coast Guard Vessel Documentation Center.

Last reported at 2017-Dec-10 13:24 UTC. Time now 2017-Dec-14 13:15 UTC.
Position N 36°43' W 076°14'.

Length 23 m; draft 3 m.

Type: Other ship. MMSI: 367517550.

Date/timePositionNaut miles runAvg speedWind from/ knotsBaromVisibWave heightAir tempDewpointWater temp
2017-Dec-10 13:24N 36°43' W 076°14'0 1.1
2017-Dec-10 13:00N 36°43' W 076°15'1 1.4
2017-Dec-10 12:30N 36°44' W 076°15'2 4.7
2017-Dec-10 12:01N 36°45' W 076°18'2 4.1
2017-Dec-10 11:31N 36°47' W 076°18'2 3.3
2017-Dec-10 11:01N 36°48' W 076°17'3 5.1
2017-Dec-10 10:30N 36°51' W 076°18'3 5.1
2017-Dec-10 10:00N 36°53' W 076°20'1 0.1
2017-Dec-09 10:48N 36°54' W 076°20'2 6.1
2017-Dec-09 10:28N 36°52' W 076°19'3 7.0
2017-Dec-09 10:00N 36°49' W 076°17'1 1.3
2017-Dec-09 09:30N 36°49' W 076°17'0 0.0
2017-Dec-09 09:00N 36°49' W 076°17'0 0.0
2017-Dec-09 08:30N 36°49' W 076°17'0 0.0
2017-Dec-09 08:00N 36°49' W 076°17'0 0.0
2017-Dec-09 07:30N 36°49' W 076°17'0 0.0
2017-Dec-09 07:00N 36°49' W 076°17'0 0.0
2017-Dec-09 06:30N 36°49' W 076°17'0 0.0
2017-Dec-09 06:00N 36°49' W 076°17'0 0.0
2017-Dec-09 05:30N 36°49' W 076°17'0 0.0
2017-Dec-09 05:00N 36°49' W 076°17'0 0.0
2017-Dec-09 04:30N 36°49' W 076°17'0 0.0
2017-Dec-09 04:00N 36°49' W 076°17'0 0.0
2017-Dec-09 03:30N 36°49' W 076°17'0 0.0
2017-Dec-09 03:00N 36°49' W 076°17'0 0.0
2017-Dec-09 02:30N 36°49' W 076°17'0 0.0
2017-Dec-09 02:00N 36°49' W 076°17'0 0.0
2017-Dec-09 01:30N 36°49' W 076°17'0 0.0
2017-Dec-09 01:00N 36°49' W 076°17'0 0.0
2017-Dec-09 00:30N 36°49' W 076°17'1 1.2
2017-Dec-09 00:00N 36°49' W 076°17'2 4.5
2017-Dec-08 23:29N 36°50' W 076°15'1 2.0
2017-Dec-08 23:00N 36°50' W 076°16'3 4.5
2017-Dec-08 22:16N 36°52' W 076°20'1 3.5
2017-Dec-08 21:58N 36°53' W 076°20'0 0.0
2017-Dec-08 20:41N 36°53' W 076°20'0 0.0
2017-Dec-08 20:24N 36°53' W 076°20'0 0.0
2017-Dec-08 18:53N 36°53' W 076°20'0 0.0
2017-Dec-08 18:19N 36°53' W 076°20'0 0.0
2017-Dec-08 18:00N 36°53' W 076°20'3 2.4
2017-Dec-08 16:43N 36°56' W 076°20'2 5.7
2017-Dec-08 16:19N 36°54' W 076°20'2 6.2
2017-Dec-08 16:00N 36°52' W 076°19'3 5.8
2017-Dec-08 15:30N 36°49' W 076°17'1 1.9
2017-Dec-08 15:00N 36°48' W 076°17'1 1.3
2017-Dec-08 14:30N 36°49' W 076°17'0 0.0
2017-Dec-08 14:00N 36°49' W 076°17'0 0.0
2017-Dec-08 13:30N 36°49' W 076°17'0 0.0
2017-Dec-08 13:00N 36°49' W 076°17'1 1.3
2017-Dec-08 12:30N 36°49' W 076°17'0 0.0
2017-Dec-08 12:00N 36°49' W 076°17'0 0.0
2017-Dec-08 11:30N 36°49' W 076°17'2 3.3
2017-Dec-08 11:00N 36°50' W 076°18'1 1.7
2017-Dec-08 10:11N 36°51' W 076°19'1 3.4
2017-Dec-08 09:56N 36°52' W 076°19'2 3.7
2017-Dec-08 09:22N 36°54' W 076°21'0 0.7
2017-Dec-08 08:50N 36°54' W 076°20'2 6.9
2017-Dec-08 08:30N 36°52' W 076°19'3 5.7
2017-Dec-08 08:00N 36°50' W 076°16'1 1.0
2017-Dec-08 07:30N 36°50' W 076°16'1 2.2
2017-Dec-08 06:58N 36°51' W 076°18'1 1.8
2017-Dec-08 06:30N 36°51' W 076°19'0 0.0
2017-Dec-08 05:28N 36°51' W 076°19'3 6.2
2017-Dec-08 05:00N 36°49' W 076°17'0 0.4
2017-Dec-08 04:30N 36°49' W 076°17'0 0.0
2017-Dec-08 04:00N 36°49' W 076°17'0 0.0
2017-Dec-08 03:30N 36°49' W 076°17'0 0.0
2017-Dec-08 03:00N 36°49' W 076°17'0 0.0
2017-Dec-08 02:30N 36°49' W 076°17'0 0.0
2017-Dec-08 02:00N 36°49' W 076°17'0 0.0
2017-Dec-08 01:30N 36°49' W 076°17'0 0.0
2017-Dec-08 01:00N 36°49' W 076°17'0 0.0
2017-Dec-08 00:30N 36°49' W 076°17'0 0.0
2017-Dec-08 00:00N 36°49' W 076°17'0 0.0
2017-Dec-07 23:30N 36°49' W 076°17'0 0.0
2017-Dec-07 23:00N 36°49' W 076°17'0 0.0
2017-Dec-07 22:30N 36°49' W 076°17'0 0.0
2017-Dec-07 22:00N 36°49' W 076°17'0 0.0
2017-Dec-07 21:30N 36°49' W 076°17'0 0.0
2017-Dec-07 21:00N 36°49' W 076°17'4 5.9
2017-Dec-07 20:18N 36°52' W 076°20'1 2.2
2017-Dec-07 19:46N 36°53' W 076°20'3 0.5
2017-Dec-07 14:04N 36°56' W 076°20'1 3.9
2017-Dec-07 13:49N 36°55' W 076°20'2 4.1
2017-Dec-07 13:25N 36°54' W 076°20'1 1.4
2017-Dec-07 12:55N 36°53' W 076°20'3 7.3
2017-Dec-07 12:30N 36°51' W 076°18'  
2017-Dec-04 10:29N 36°51' W 076°18'2 5.2
2017-Dec-04 10:00N 36°50' W 076°15'1 2.0
2017-Dec-04 09:30N 36°50' W 076°16'2 4.3
2017-Dec-04 09:00N 36°48' W 076°17'2 3.9
2017-Dec-04 08:30N 36°47' W 076°18'2 4.0
2017-Dec-04 08:00N 36°45' W 076°18'1 2.4
2017-Dec-04 07:30N 36°46' W 076°18'1 1.7
2017-Dec-04 07:00N 36°47' W 076°18'1 2.9
2017-Dec-04 06:30N 36°48' W 076°18'1 1.2
2017-Dec-04 06:00N 36°49' W 076°17'0 0.0
2017-Dec-04 05:30N 36°49' W 076°17'0 0.0
2017-Dec-04 05:00N 36°49' W 076°17'0 0.0
2017-Dec-04 04:30N 36°49' W 076°17'0 0.0
2017-Dec-04 04:00N 36°49' W 076°17'0 0.0
2017-Dec-04 03:30N 36°49' W 076°17'0 0.0
2017-Dec-04 03:00N 36°49' W 076°17'0 0.0
2017-Dec-04 02:30N 36°49' W 076°17'0 0.0
2017-Dec-04 02:00N 36°49' W 076°17'0 0.0
2017-Dec-04 01:30N 36°49' W 076°17'0 0.0
2017-Dec-04 01:00N 36°49' W 076°17'0 0.0
2017-Dec-04 00:30N 36°49' W 076°17'0 0.0
2017-Dec-04 00:00N 36°49' W 076°17'0 0.0
2017-Dec-03 23:30N 36°49' W 076°17'0 0.0
2017-Dec-03 23:00N 36°49' W 076°17'0 0.0
2017-Dec-03 22:30N 36°49' W 076°17'0 0.0
2017-Dec-03 22:00N 36°49' W 076°17'0 0.0
2017-Dec-03 21:30N 36°49' W 076°17'0 0.0
2017-Dec-03 21:00N 36°49' W 076°17'0 0.0
2017-Dec-03 20:30N 36°49' W 076°17'0 0.0
2017-Dec-03 20:00N 36°49' W 076°17'0 0.0
2017-Dec-03 19:30N 36°49' W 076°17'0 0.0
2017-Dec-03 19:00N 36°49' W 076°17'0 0.0
2017-Dec-03 18:30N 36°49' W 076°17'0 0.0
2017-Dec-03 18:00N 36°49' W 076°17'0 0.0
2017-Dec-03 17:30N 36°49' W 076°17'0 0.0
2017-Dec-03 17:00N 36°49' W 076°17'0 0.0
2017-Dec-03 16:30N 36°49' W 076°17'0 0.0
2017-Dec-03 16:00N 36°49' W 076°17'0 0.0
2017-Dec-03 15:30N 36°49' W 076°17'0 0.0
2017-Dec-03 15:00N 36°49' W 076°17'0 0.0
2017-Dec-03 14:30N 36°49' W 076°17'0 0.0
2017-Dec-03 14:00N 36°49' W 076°17'0 0.0
2017-Dec-03 13:30N 36°49' W 076°17'0 0.0
2017-Dec-03 13:00N 36°49' W 076°17'0 0.0
2017-Dec-03 12:30N 36°49' W 076°17'0 0.0
2017-Dec-03 12:00N 36°49' W 076°17'0 0.0
2017-Dec-03 11:30N 36°49' W 076°17'0 0.0
2017-Dec-03 11:00N 36°49' W 076°17'0 0.0
2017-Dec-03 10:30N 36°49' W 076°17'0 0.0
2017-Dec-03 10:00N 36°49' W 076°17'0 0.0
2017-Dec-03 09:30N 36°49' W 076°17'0 0.0
2017-Dec-03 09:00N 36°49' W 076°17'0 0.0
2017-Dec-03 08:30N 36°49' W 076°17'0 0.0
2017-Dec-03 08:00N 36°49' W 076°17'0 0.0
2017-Dec-03 07:30N 36°49' W 076°17'0 0.0
2017-Dec-03 07:00N 36°49' W 076°17'0 0.0
2017-Dec-03 06:30N 36°49' W 076°17'0 0.0
2017-Dec-03 06:00N 36°49' W 076°17'0 0.0
2017-Dec-03 05:30N 36°49' W 076°17'0 0.0
2017-Dec-03 05:00N 36°49' W 076°17'0 0.0
2017-Dec-03 04:30N 36°49' W 076°17'0 0.0
2017-Dec-03 04:00N 36°49' W 076°17'0 0.0
2017-Dec-03 03:30N 36°49' W 076°17'0 0.0
2017-Dec-03 03:00N 36°49' W 076°17'0 0.0
2017-Dec-03 02:30N 36°49' W 076°17'0 0.0
2017-Dec-03 02:00N 36°49' W 076°17'0 0.0
2017-Dec-03 01:30N 36°49' W 076°17'0 0.0
2017-Dec-03 01:00N 36°49' W 076°17'0 0.0
2017-Dec-03 00:30N 36°49' W 076°17'0 0.0
2017-Dec-03 00:00N 36°49' W 076°17'0 0.0
2017-Dec-02 23:30N 36°49' W 076°17'0 0.0
2017-Dec-02 23:01N 36°49' W 076°17'0 0.0
2017-Dec-02 22:30N 36°49' W 076°17'0 0.0
2017-Dec-02 22:00N 36°49' W 076°17'0 0.0
2017-Dec-02 21:30N 36°49' W 076°17'0 0.0
2017-Dec-02 21:00N 36°49' W 076°17'0 0.0
2017-Dec-02 20:30N 36°49' W 076°17'0 0.0
2017-Dec-02 20:00N 36°49' W 076°17'0 0.0
2017-Dec-02 19:30N 36°49' W 076°17'0 0.0
2017-Dec-02 19:00N 36°49' W 076°17'0 0.0
2017-Dec-02 18:30N 36°49' W 076°17'0 0.0
2017-Dec-02 18:00N 36°49' W 076°17'0 0.0
2017-Dec-02 17:30N 36°49' W 076°17'0 0.0
2017-Dec-02 17:00N 36°49' W 076°17'0 0.0
2017-Dec-02 16:30N 36°49' W 076°17'0 0.0
2017-Dec-02 16:00N 36°49' W 076°17'0 0.0
2017-Dec-02 15:30N 36°49' W 076°17'0 0.0
2017-Dec-02 15:00N 36°49' W 076°17'0 0.0
2017-Dec-02 14:30N 36°49' W 076°17'0 0.0
2017-Dec-02 14:00N 36°49' W 076°17'0 0.0
2017-Dec-02 13:30N 36°49' W 076°17'0 0.0
2017-Dec-02 13:00N 36°49' W 076°17'0 0.0
2017-Dec-02 12:30N 36°49' W 076°17'0 0.0
2017-Dec-02 12:00N 36°49' W 076°17'0 0.0
2017-Dec-02 11:30N 36°49' W 076°17'0 0.0
2017-Dec-02 11:00N 36°49' W 076°17'0 0.0
2017-Dec-02 10:30N 36°49' W 076°17'0 0.0
2017-Dec-02 10:00N 36°49' W 076°17'0 0.0
2017-Dec-02 09:30N 36°49' W 076°17'0 0.0
2017-Dec-02 09:00N 36°49' W 076°17'0 0.0
2017-Dec-02 08:30N 36°49' W 076°17'0 0.0
2017-Dec-02 08:00N 36°49' W 076°17'0 0.0
2017-Dec-02 07:30N 36°49' W 076°17'0 0.0
2017-Dec-02 07:00N 36°49' W 076°17'0 0.0
2017-Dec-02 06:30N 36°49' W 076°17'0 0.0
2017-Dec-02 06:00N 36°49' W 076°17'0 0.0
2017-Dec-02 05:30N 36°49' W 076°17'0 0.0
2017-Dec-02 05:00N 36°49' W 076°17'0 0.0
2017-Dec-02 04:30N 36°49' W 076°17'0 0.0
2017-Dec-02 04:00N 36°49' W 076°17'0 0.0
2017-Dec-02 03:30N 36°49' W 076°17'0 0.0
2017-Dec-02 03:00N 36°49' W 076°17'0 0.0
2017-Dec-02 02:30N 36°49' W 076°17'0 0.0
2017-Dec-02 02:00N 36°49' W 076°17'0 0.0
2017-Dec-02 01:30N 36°49' W 076°17'0 0.0
2017-Dec-02 01:00N 36°49' W 076°17'0 0.0
2017-Dec-02 00:30N 36°49' W 076°17'0 0.0
2017-Dec-02 00:01N 36°49' W 076°17'0 0.0
2017-Dec-01 23:30N 36°49' W 076°17'0 0.0
2017-Dec-01 23:00N 36°49' W 076°17'0 0.0
2017-Dec-01 22:30N 36°49' W 076°17'0 0.0
2017-Dec-01 22:00N 36°49' W 076°17'0 0.0
2017-Dec-01 21:30N 36°49' W 076°17'0 0.0
2017-Dec-01 21:00N 36°49' W 076°17'0 0.0
2017-Dec-01 20:30N 36°49' W 076°17'0 0.0
2017-Dec-01 20:00N 36°49' W 076°17'0 0.0
2017-Dec-01 19:30N 36°49' W 076°17'0 0.0
2017-Dec-01 19:00N 36°49' W 076°17'0 0.0
2017-Dec-01 18:30N 36°49' W 076°17'0 0.0
2017-Dec-01 18:00N 36°48' W 076°17'0 0.0
2017-Dec-01 17:30N 36°49' W 076°17'0 0.0
2017-Dec-01 17:00N 36°48' W 076°17'0 0.0
2017-Dec-01 16:30N 36°49' W 076°17'0 0.0
2017-Dec-01 16:00N 36°49' W 076°17'0 0.0
2017-Dec-01 15:30N 36°49' W 076°17'0 0.0
2017-Dec-01 15:00N 36°49' W 076°17'0 0.0
2017-Dec-01 14:30N 36°49' W 076°17'0 0.0
2017-Dec-01 14:00N 36°49' W 076°17'0 0.0
2017-Dec-01 13:30N 36°49' W 076°17'0 0.0
2017-Dec-01 13:00N 36°49' W 076°17'0 0.0
2017-Dec-01 12:30N 36°49' W 076°17'0 0.0
2017-Dec-01 12:00N 36°49' W 076°17'0 0.0
2017-Dec-01 11:30N 36°49' W 076°17'0 0.0
2017-Dec-01 11:00N 36°49' W 076°17'0 0.0
2017-Dec-01 10:30N 36°49' W 076°17'0 0.0
2017-Dec-01 10:00N 36°49' W 076°17'0 0.0
2017-Dec-01 09:30N 36°49' W 076°17'0 0.0
2017-Dec-01 09:00N 36°49' W 076°17'0 0.0
2017-Dec-01 08:30N 36°49' W 076°17'0 0.0
2017-Dec-01 08:00N 36°49' W 076°17'0 0.0
2017-Dec-01 07:30N 36°49' W 076°17'0 0.0
2017-Dec-01 07:00N 36°49' W 076°17'0 0.0
2017-Dec-01 06:30N 36°49' W 076°17'0 0.0
2017-Dec-01 06:00N 36°49' W 076°17'0 0.0
2017-Dec-01 05:30N 36°49' W 076°17'0 0.0
2017-Dec-01 05:00N 36°49' W 076°17'0 0.0
2017-Dec-01 04:30N 36°49' W 076°17'0 0.0
2017-Dec-01 04:00N 36°49' W 076°17'0 0.0
2017-Dec-01 03:30N 36°49' W 076°17'0 0.0
2017-Dec-01 03:00N 36°49' W 076°17'0 0.0
2017-Dec-01 02:30N 36°49' W 076°17'0 0.0
2017-Dec-01 02:00N 36°49' W 076°17'0 0.0
2017-Dec-01 01:30N 36°49' W 076°17'0 0.0
2017-Dec-01 01:00N 36°49' W 076°17'0 0.0
2017-Dec-01 00:30N 36°49' W 076°17'0 0.0
2017-Dec-01 00:00N 36°49' W 076°17'0 0.0
2017-Nov-30 23:30N 36°49' W 076°17'0 0.0
2017-Nov-30 23:00N 36°49' W 076°17'0 0.0
2017-Nov-30 22:30N 36°49' W 076°17'0 0.0
2017-Nov-30 22:00N 36°49' W 076°17'0 0.0
2017-Nov-30 21:30N 36°49' W 076°17'0 0.0
2017-Nov-30 21:00N 36°49' W 076°17'0 0.4
2017-Nov-30 20:30N 36°49' W 076°17'3 6.2
2017-Nov-30 20:00N 36°52' W 076°19'2 3.9
2017-Nov-30 19:30N 36°53' W 076°20'12 2.4
2017-Nov-30 14:35N 36°58' W 076°06'0 5.1
2017-Nov-30 14:30N 36°57' W 076°06'2 3.6
2017-Nov-30 13:54N 36°55' W 076°06'0 0.5
2017-Nov-30 13:28N 36°55' W 076°05'  
Track history (hours):
 
Tides and Currents Weather Stations Pressure Air Temp Water Temp Dewpoint Dewpoint Depression Visibility Wind Speed Wind Dir Waves Ship Positions

St. James

Owner: St James Services LLC, Convent, LA. More information available from US FCC via Universal Licensing System and Coast Guard Vessel Documentation Center.

Last reported at 2017-Dec-10 13:24 UTC. Time now 2017-Dec-14 13:15 UTC.
Position N 36°43' W 076°14'.

Length 23 m; draft 3 m.

Type: Other ship. MMSI: 367517550.

Date/timePositionNaut miles runAvg speedWind from/ knotsBaromVisibWave heightAir tempDewpointWater temp
2017-Dec-10 13:24N 36°43' W 076°14'0 1.1
2017-Dec-10 13:00N 36°43' W 076°15'1 1.4
2017-Dec-10 12:30N 36°44' W 076°15'2 4.7
2017-Dec-10 12:01N 36°45' W 076°18'2 4.1
2017-Dec-10 11:31N 36°47' W 076°18'2 3.3
2017-Dec-10 11:01N 36°48' W 076°17'3 5.1
2017-Dec-10 10:30N 36°51' W 076°18'3 5.1
2017-Dec-10 10:00N 36°53' W 076°20'1 0.1
2017-Dec-09 10:48N 36°54' W 076°20'2 6.1
2017-Dec-09 10:28N 36°52' W 076°19'3 7.0
2017-Dec-09 10:00N 36°49' W 076°17'1 1.3
2017-Dec-09 09:30N 36°49' W 076°17'0 0.0
2017-Dec-09 09:00N 36°49' W 076°17'0 0.0
2017-Dec-09 08:30N 36°49' W 076°17'0 0.0
2017-Dec-09 08:00N 36°49' W 076°17'0 0.0
2017-Dec-09 07:30N 36°49' W 076°17'0 0.0
2017-Dec-09 07:00N 36°49' W 076°17'0 0.0
2017-Dec-09 06:30N 36°49' W 076°17'0 0.0
2017-Dec-09 06:00N 36°49' W 076°17'0 0.0
2017-Dec-09 05:30N 36°49' W 076°17'0 0.0
2017-Dec-09 05:00N 36°49' W 076°17'0 0.0
2017-Dec-09 04:30N 36°49' W 076°17'0 0.0
2017-Dec-09 04:00N 36°49' W 076°17'0 0.0
2017-Dec-09 03:30N 36°49' W 076°17'0 0.0
2017-Dec-09 03:00N 36°49' W 076°17'0 0.0
2017-Dec-09 02:30N 36°49' W 076°17'0 0.0
2017-Dec-09 02:00N 36°49' W 076°17'0 0.0
2017-Dec-09 01:30N 36°49' W 076°17'0 0.0
2017-Dec-09 01:00N 36°49' W 076°17'0 0.0
2017-Dec-09 00:30N 36°49' W 076°17'1 1.2
2017-Dec-09 00:00N 36°49' W 076°17'2 4.5
2017-Dec-08 23:29N 36°50' W 076°15'1 2.0
2017-Dec-08 23:00N 36°50' W 076°16'3 4.5
2017-Dec-08 22:16N 36°52' W 076°20'1 3.5
2017-Dec-08 21:58N 36°53' W 076°20'0 0.0
2017-Dec-08 20:41N 36°53' W 076°20'0 0.0
2017-Dec-08 20:24N 36°53' W 076°20'0 0.0
2017-Dec-08 18:53N 36°53' W 076°20'0 0.0
2017-Dec-08 18:19N 36°53' W 076°20'0 0.0
2017-Dec-08 18:00N 36°53' W 076°20'3 2.4
2017-Dec-08 16:43N 36°56' W 076°20'2 5.7
2017-Dec-08 16:19N 36°54' W 076°20'2 6.2
2017-Dec-08 16:00N 36°52' W 076°19'3 5.8
2017-Dec-08 15:30N 36°49' W 076°17'1 1.9
2017-Dec-08 15:00N 36°48' W 076°17'1 1.3
2017-Dec-08 14:30N 36°49' W 076°17'0 0.0
2017-Dec-08 14:00N 36°49' W 076°17'0 0.0
2017-Dec-08 13:30N 36°49' W 076°17'0 0.0
2017-Dec-08 13:00N 36°49' W 076°17'1 1.3
2017-Dec-08 12:30N 36°49' W 076°17'0 0.0
2017-Dec-08 12:00N 36°49' W 076°17'0 0.0
2017-Dec-08 11:30N 36°49' W 076°17'2 3.3
2017-Dec-08 11:00N 36°50' W 076°18'1 1.7
2017-Dec-08 10:11N 36°51' W 076°19'1 3.4
2017-Dec-08 09:56N 36°52' W 076°19'2 3.7
2017-Dec-08 09:22N 36°54' W 076°21'0 0.7
2017-Dec-08 08:50N 36°54' W 076°20'2 6.9
2017-Dec-08 08:30N 36°52' W 076°19'3 5.7
2017-Dec-08 08:00N 36°50' W 076°16'1 1.0
2017-Dec-08 07:30N 36°50' W 076°16'1 2.2
2017-Dec-08 06:58N 36°51' W 076°18'1 1.8
2017-Dec-08 06:30N 36°51' W 076°19'0 0.0
2017-Dec-08 05:28N 36°51' W 076°19'3 6.2
2017-Dec-08 05:00N 36°49' W 076°17'0 0.4
2017-Dec-08 04:30N 36°49' W 076°17'0 0.0
2017-Dec-08 04:00N 36°49' W 076°17'0 0.0
2017-Dec-08 03:30N 36°49' W 076°17'0 0.0
2017-Dec-08 03:00N 36°49' W 076°17'0 0.0
2017-Dec-08 02:30N 36°49' W 076°17'0 0.0
2017-Dec-08 02:00N 36°49' W 076°17'0 0.0
2017-Dec-08 01:30N 36°49' W 076°17'0 0.0
2017-Dec-08 01:00N 36°49' W 076°17'0 0.0
2017-Dec-08 00:30N 36°49' W 076°17'0 0.0
2017-Dec-08 00:00N 36°49' W 076°17'0 0.0
2017-Dec-07 23:30N 36°49' W 076°17'0 0.0
2017-Dec-07 23:00N 36°49' W 076°17'0 0.0
2017-Dec-07 22:30N 36°49' W 076°17'0 0.0
2017-Dec-07 22:00N 36°49' W 076°17'0 0.0
2017-Dec-07 21:30N 36°49' W 076°17'0 0.0
2017-Dec-07 21:00N 36°49' W 076°17'4 5.9
2017-Dec-07 20:18N 36°52' W 076°20'1 2.2
2017-Dec-07 19:46N 36°53' W 076°20'3 0.5
2017-Dec-07 14:04N 36°56' W 076°20'1 3.9
2017-Dec-07 13:49N 36°55' W 076°20'2 4.1
2017-Dec-07 13:25N 36°54' W 076°20'1 1.4
2017-Dec-07 12:55N 36°53' W 076°20'3 7.3
2017-Dec-07 12:30N 36°51' W 076°18'  
2017-Dec-04 10:29N 36°51' W 076°18'2 5.2
2017-Dec-04 10:00N 36°50' W 076°15'1 2.0
2017-Dec-04 09:30N 36°50' W 076°16'2 4.3
2017-Dec-04 09:00N 36°48' W 076°17'2 3.9
2017-Dec-04 08:30N 36°47' W 076°18'2 4.0
2017-Dec-04 08:00N 36°45' W 076°18'1 2.4
2017-Dec-04 07:30N 36°46' W 076°18'1 1.7
2017-Dec-04 07:00N 36°47' W 076°18'1 2.9
2017-Dec-04 06:30N 36°48' W 076°18'1 1.2
2017-Dec-04 06:00N 36°49' W 076°17'0 0.0
2017-Dec-04 05:30N 36°49' W 076°17'0 0.0
2017-Dec-04 05:00N 36°49' W 076°17'0 0.0
2017-Dec-04 04:30N 36°49' W 076°17'0 0.0
2017-Dec-04 04:00N 36°49' W 076°17'0 0.0
2017-Dec-04 03:30N 36°49' W 076°17'0 0.0
2017-Dec-04 03:00N 36°49' W 076°17'0 0.0
2017-Dec-04 02:30N 36°49' W 076°17'0 0.0
2017-Dec-04 02:00N 36°49' W 076°17'0 0.0
2017-Dec-04 01:30N 36°49' W 076°17'0 0.0
2017-Dec-04 01:00N 36°49' W 076°17'0 0.0
2017-Dec-04 00:30N 36°49' W 076°17'0 0.0
2017-Dec-04 00:00N 36°49' W 076°17'0 0.0
2017-Dec-03 23:30N 36°49' W 076°17'0 0.0
2017-Dec-03 23:00N 36°49' W 076°17'0 0.0
2017-Dec-03 22:30N 36°49' W 076°17'0 0.0
2017-Dec-03 22:00N 36°49' W 076°17'0 0.0
2017-Dec-03 21:30N 36°49' W 076°17'0 0.0
2017-Dec-03 21:00N 36°49' W 076°17'0 0.0
2017-Dec-03 20:30N 36°49' W 076°17'0 0.0
2017-Dec-03 20:00N 36°49' W 076°17'0 0.0
2017-Dec-03 19:30N 36°49' W 076°17'0 0.0
2017-Dec-03 19:00N 36°49' W 076°17'0 0.0
2017-Dec-03 18:30N 36°49' W 076°17'0 0.0
2017-Dec-03 18:00N 36°49' W 076°17'0 0.0
2017-Dec-03 17:30N 36°49' W 076°17'0 0.0
2017-Dec-03 17:00N 36°49' W 076°17'0 0.0
2017-Dec-03 16:30N 36°49' W 076°17'0 0.0
2017-Dec-03 16:00N 36°49' W 076°17'0 0.0
2017-Dec-03 15:30N 36°49' W 076°17'0 0.0
2017-Dec-03 15:00N 36°49' W 076°17'0 0.0
2017-Dec-03 14:30N 36°49' W 076°17'0 0.0
2017-Dec-03 14:00N 36°49' W 076°17'0 0.0
2017-Dec-03 13:30N 36°49' W 076°17'0 0.0
2017-Dec-03 13:00N 36°49' W 076°17'0 0.0
2017-Dec-03 12:30N 36°49' W 076°17'0 0.0
2017-Dec-03 12:00N 36°49' W 076°17'0 0.0
2017-Dec-03 11:30N 36°49' W 076°17'0 0.0
2017-Dec-03 11:00N 36°49' W 076°17'0 0.0
2017-Dec-03 10:30N 36°49' W 076°17'0 0.0
2017-Dec-03 10:00N 36°49' W 076°17'0 0.0
2017-Dec-03 09:30N 36°49' W 076°17'0 0.0
2017-Dec-03 09:00N 36°49' W 076°17'0 0.0
2017-Dec-03 08:30N 36°49' W 076°17'0 0.0
2017-Dec-03 08:00N 36°49' W 076°17'0 0.0
2017-Dec-03 07:30N 36°49' W 076°17'0 0.0
2017-Dec-03 07:00N 36°49' W 076°17'0 0.0
2017-Dec-03 06:30N 36°49' W 076°17'0 0.0
2017-Dec-03 06:00N 36°49' W 076°17'0 0.0
2017-Dec-03 05:30N 36°49' W 076°17'0 0.0
2017-Dec-03 05:00N 36°49' W 076°17'0 0.0
2017-Dec-03 04:30N 36°49' W 076°17'0 0.0
2017-Dec-03 04:00N 36°49' W 076°17'0 0.0
2017-Dec-03 03:30N 36°49' W 076°17'0 0.0
2017-Dec-03 03:00N 36°49' W 076°17'0 0.0
2017-Dec-03 02:30N 36°49' W 076°17'0 0.0
2017-Dec-03 02:00N 36°49' W 076°17'0 0.0
2017-Dec-03 01:30N 36°49' W 076°17'0 0.0
2017-Dec-03 01:00N 36°49' W 076°17'0 0.0
2017-Dec-03 00:30N 36°49' W 076°17'0 0.0
2017-Dec-03 00:00N 36°49' W 076°17'0 0.0
2017-Dec-02 23:30N 36°49' W 076°17'0 0.0
2017-Dec-02 23:01N 36°49' W 076°17'0 0.0
2017-Dec-02 22:30N 36°49' W 076°17'0 0.0
2017-Dec-02 22:00N 36°49' W 076°17'0 0.0
2017-Dec-02 21:30N 36°49' W 076°17'0 0.0
2017-Dec-02 21:00N 36°49' W 076°17'0 0.0
2017-Dec-02 20:30N 36°49' W 076°17'0 0.0
2017-Dec-02 20:00N 36°49' W 076°17'0 0.0
2017-Dec-02 19:30N 36°49' W 076°17'0 0.0
2017-Dec-02 19:00N 36°49' W 076°17'0 0.0
2017-Dec-02 18:30N 36°49' W 076°17'0 0.0
2017-Dec-02 18:00N 36°49' W 076°17'0 0.0
2017-Dec-02 17:30N 36°49' W 076°17'0 0.0
2017-Dec-02 17:00N 36°49' W 076°17'0 0.0
2017-Dec-02 16:30N 36°49' W 076°17'0 0.0
2017-Dec-02 16:00N 36°49' W 076°17'0 0.0
2017-Dec-02 15:30N 36°49' W 076°17'0 0.0
2017-Dec-02 15:00N 36°49' W 076°17'0 0.0
2017-Dec-02 14:30N 36°49' W 076°17'0 0.0
2017-Dec-02 14:00N 36°49' W 076°17'0 0.0
2017-Dec-02 13:30N 36°49' W 076°17'0 0.0
2017-Dec-02 13:00N 36°49' W 076°17'0 0.0
2017-Dec-02 12:30N 36°49' W 076°17'0 0.0
2017-Dec-02 12:00N 36°49' W 076°17'0 0.0
2017-Dec-02 11:30N 36°49' W 076°17'0 0.0
2017-Dec-02 11:00N 36°49' W 076°17'0 0.0
2017-Dec-02 10:30N 36°49' W 076°17'0 0.0
2017-Dec-02 10:00N 36°49' W 076°17'0 0.0
2017-Dec-02 09:30N 36°49' W 076°17'0 0.0
2017-Dec-02 09:00N 36°49' W 076°17'0 0.0
2017-Dec-02 08:30N 36°49' W 076°17'0 0.0
2017-Dec-02 08:00N 36°49' W 076°17'0 0.0
2017-Dec-02 07:30N 36°49' W 076°17'0 0.0
2017-Dec-02 07:00N 36°49' W 076°17'0 0.0
2017-Dec-02 06:30N 36°49' W 076°17'0 0.0
2017-Dec-02 06:00N 36°49' W 076°17'0 0.0
2017-Dec-02 05:30N 36°49' W 076°17'0 0.0
2017-Dec-02 05:00N 36°49' W 076°17'0 0.0
2017-Dec-02 04:30N 36°49' W 076°17'0 0.0
2017-Dec-02 04:00N 36°49' W 076°17'0 0.0
2017-Dec-02 03:30N 36°49' W 076°17'0 0.0
2017-Dec-02 03:00N 36°49' W 076°17'0 0.0
2017-Dec-02 02:30N 36°49' W 076°17'0 0.0
2017-Dec-02 02:00N 36°49' W 076°17'0 0.0
2017-Dec-02 01:30N 36°49' W 076°17'0 0.0
2017-Dec-02 01:00N 36°49' W 076°17'0 0.0
2017-Dec-02 00:30N 36°49' W 076°17'0 0.0
2017-Dec-02 00:01N 36°49' W 076°17'0 0.0
2017-Dec-01 23:30N 36°49' W 076°17'0 0.0
2017-Dec-01 23:00N 36°49' W 076°17'0 0.0
2017-Dec-01 22:30N 36°49' W 076°17'0 0.0
2017-Dec-01 22:00N 36°49' W 076°17'0 0.0
2017-Dec-01 21:30N 36°49' W 076°17'0 0.0
2017-Dec-01 21:00N 36°49' W 076°17'0 0.0
2017-Dec-01 20:30N 36°49' W 076°17'0 0.0
2017-Dec-01 20:00N 36°49' W 076°17'0 0.0
2017-Dec-01 19:30N 36°49' W 076°17'0 0.0
2017-Dec-01 19:00N 36°49' W 076°17'0 0.0
2017-Dec-01 18:30N 36°49' W 076°17'0 0.0
2017-Dec-01 18:00N 36°48' W 076°17'0 0.0
2017-Dec-01 17:30N 36°49' W 076°17'0 0.0
2017-Dec-01 17:00N 36°48' W 076°17'0 0.0
2017-Dec-01 16:30N 36°49' W 076°17'0 0.0
2017-Dec-01 16:00N 36°49' W 076°17'0 0.0
2017-Dec-01 15:30N 36°49' W 076°17'0 0.0
2017-Dec-01 15:00N 36°49' W 076°17'0 0.0
2017-Dec-01 14:30N 36°49' W 076°17'0 0.0
2017-Dec-01 14:00N 36°49' W 076°17'0 0.0
2017-Dec-01 13:30N 36°49' W 076°17'0 0.0
2017-Dec-01 13:00N 36°49' W 076°17'0 0.0
2017-Dec-01 12:30N 36°49' W 076°17'0 0.0
2017-Dec-01 12:00N 36°49' W 076°17'0 0.0
2017-Dec-01 11:30N 36°49' W 076°17'0 0.0
2017-Dec-01 11:00N 36°49' W 076°17'0 0.0
2017-Dec-01 10:30N 36°49' W 076°17'0 0.0
2017-Dec-01 10:00N 36°49' W 076°17'0 0.0
2017-Dec-01 09:30N 36°49' W 076°17'0 0.0
2017-Dec-01 09:00N 36°49' W 076°17'0 0.0
2017-Dec-01 08:30N 36°49' W 076°17'0 0.0
2017-Dec-01 08:00N 36°49' W 076°17'0 0.0
2017-Dec-01 07:30N 36°49' W 076°17'0 0.0
2017-Dec-01 07:00N 36°49' W 076°17'0 0.0
2017-Dec-01 06:30N 36°49' W 076°17'0 0.0
2017-Dec-01 06:00N 36°49' W 076°17'0 0.0
2017-Dec-01 05:30N 36°49' W 076°17'0 0.0
2017-Dec-01 05:00N 36°49' W 076°17'0 0.0
2017-Dec-01 04:30N 36°49' W 076°17'0 0.0
2017-Dec-01 04:00N 36°49' W 076°17'0 0.0
2017-Dec-01 03:30N 36°49' W 076°17'0 0.0
2017-Dec-01 03:00N 36°49' W 076°17'0 0.0
2017-Dec-01 02:30N 36°49' W 076°17'0 0.0
2017-Dec-01 02:00N 36°49' W 076°17'0 0.0
2017-Dec-01 01:30N 36°49' W 076°17'0 0.0
2017-Dec-01 01:00N 36°49' W 076°17'0 0.0
2017-Dec-01 00:30N 36°49' W 076°17'0 0.0
2017-Dec-01 00:00N 36°49' W 076°17'0 0.0
2017-Nov-30 23:30N 36°49' W 076°17'0 0.0
2017-Nov-30 23:00N 36°49' W 076°17'0 0.0
2017-Nov-30 22:30N 36°49' W 076°17'0 0.0
2017-Nov-30 22:00N 36°49' W 076°17'0 0.0
2017-Nov-30 21:30N 36°49' W 076°17'0 0.0
2017-Nov-30 21:00N 36°49' W 076°17'0 0.4
2017-Nov-30 20:30N 36°49' W 076°17'3 6.2
2017-Nov-30 20:00N 36°52' W 076°19'2 3.9
2017-Nov-30 19:30N 36°53' W 076°20'12 2.4
2017-Nov-30 14:35N 36°58' W 076°06'0 5.1
2017-Nov-30 14:30N 36°57' W 076°06'2 3.6
2017-Nov-30 13:54N 36°55' W 076°06'0 0.5
2017-Nov-30 13:28N 36°55' W 076°05'  

Dump ship's entire track history